sensor_id;sensor_type;location;lat;lon;timestamp;P1;durP1;ratioP1;P2;durP2;ratioP2
15454;SDS011;21057;51.024;7.540;2023-03-14T00:00:11;24.93;;;23.43;;
15454;SDS011;21057;51.024;7.540;2023-03-14T00:02:41;25.80;;;24.10;;
15454;SDS011;21057;51.024;7.540;2023-03-14T00:05:08;24.90;;;23.40;;
15454;SDS011;21057;51.024;7.540;2023-03-14T00:07:36;25.10;;;23.60;;
15454;SDS011;21057;51.024;7.540;2023-03-14T00:10:06;25.57;;;24.07;;
15454;SDS011;21057;51.024;7.540;2023-03-14T00:12:37;25.27;;;23.83;;
15454;SDS011;21057;51.024;7.540;2023-03-14T00:15:04;26.20;;;24.50;;
15454;SDS011;21057;51.024;7.540;2023-03-14T00:17:32;25.83;;;24.23;;
15454;SDS011;21057;51.024;7.540;2023-03-14T00:20:02;25.20;;;23.63;;
15454;SDS011;21057;51.024;7.540;2023-03-14T00:22:33;25.70;;;23.97;;
15454;SDS011;21057;51.024;7.540;2023-03-14T00:25:07;24.70;;;23.20;;
15454;SDS011;21057;51.024;7.540;2023-03-14T00:27:36;24.80;;;23.23;;
15454;SDS011;21057;51.024;7.540;2023-03-14T00:30:03;24.67;;;23.00;;
15454;SDS011;21057;51.024;7.540;2023-03-14T00:37:51;23.93;;;22.43;;
15454;SDS011;21057;51.024;7.540;2023-03-14T00:40:18;23.50;;;22.10;;
15454;SDS011;21057;51.024;7.540;2023-03-14T00:42:45;23.40;;;21.77;;
15454;SDS011;21057;51.024;7.540;2023-03-14T00:45:14;23.03;;;21.67;;
15454;SDS011;21057;51.024;7.540;2023-03-14T00:47:40;22.87;;;21.40;;
15454;SDS011;21057;51.024;7.540;2023-03-14T00:50:16;22.70;;;21.33;;
15454;SDS011;21057;51.024;7.540;2023-03-14T00:52:44;23.17;;;21.67;;
15454;SDS011;21057;51.024;7.540;2023-03-14T00:55:13;22.50;;;20.90;;
15454;SDS011;21057;51.024;7.540;2023-03-14T00:57:40;22.70;;;21.40;;
15454;SDS011;21057;51.024;7.540;2023-03-14T01:00:07;22.87;;;21.57;;
15454;SDS011;21057;51.024;7.540;2023-03-14T01:02:37;23.17;;;21.87;;
15454;SDS011;21057;51.024;7.540;2023-03-14T01:05:04;24.37;;;22.73;;
15454;SDS011;21057;51.024;7.540;2023-03-14T01:07:32;22.17;;;20.87;;
15454;SDS011;21057;51.024;7.540;2023-03-14T01:10:00;24.17;;;22.33;;
15454;SDS011;21057;51.024;7.540;2023-03-14T01:12:27;22.83;;;21.43;;
15454;SDS011;21057;51.024;7.540;2023-03-14T01:17:24;23.00;;;21.60;;
15454;SDS011;21057;51.024;7.540;2023-03-14T01:19:59;24.07;;;22.40;;
15454;SDS011;21057;51.024;7.540;2023-03-14T01:22:26;23.50;;;21.77;;
15454;SDS011;21057;51.024;7.540;2023-03-14T01:24:53;23.53;;;22.07;;
15454;SDS011;21057;51.024;7.540;2023-03-14T01:27:21;24.10;;;22.60;;
15454;SDS011;21057;51.024;7.540;2023-03-14T01:29:48;22.73;;;21.20;;
15454;SDS011;21057;51.024;7.540;2023-03-14T01:32:15;22.97;;;21.67;;
15454;SDS011;21057;51.024;7.540;2023-03-14T01:34:49;25.03;;;23.37;;
15454;SDS011;21057;51.024;7.540;2023-03-14T01:37:16;23.53;;;21.70;;
15454;SDS011;21057;51.024;7.540;2023-03-14T01:39:43;23.23;;;21.67;;
15454;SDS011;21057;51.024;7.540;2023-03-14T01:42:13;23.17;;;21.20;;
15454;SDS011;21057;51.024;7.540;2023-03-14T01:44:50;21.97;;;20.67;;
15454;SDS011;21057;51.024;7.540;2023-03-14T01:47:18;22.50;;;21.10;;
15454;SDS011;21057;51.024;7.540;2023-03-14T01:49:46;23.37;;;21.67;;
15454;SDS011;21057;51.024;7.540;2023-03-14T01:52:18;22.70;;;21.30;;
15454;SDS011;21057;51.024;7.540;2023-03-14T01:54:49;22.60;;;21.00;;
15454;SDS011;21057;51.024;7.540;2023-03-14T01:57:19;22.87;;;21.37;;
15454;SDS011;21057;51.024;7.540;2023-03-14T01:59:52;24.30;;;22.80;;
15454;SDS011;21057;51.024;7.540;2023-03-14T02:02:24;25.17;;;23.30;;
15454;SDS011;21057;51.024;7.540;2023-03-14T02:04:52;24.43;;;22.83;;
15454;SDS011;21057;51.024;7.540;2023-03-14T02:07:39;25.23;;;23.20;;
15454;SDS011;21057;51.024;7.540;2023-03-14T02:10:14;25.17;;;23.70;;
15454;SDS011;21057;51.024;7.540;2023-03-14T02:12:43;27.13;;;25.43;;
15454;SDS011;21057;51.024;7.540;2023-03-14T02:15:12;27.07;;;25.10;;
15454;SDS011;21057;51.024;7.540;2023-03-14T02:17:39;28.70;;;26.77;;
15454;SDS011;21057;51.024;7.540;2023-03-14T02:20:14;29.50;;;27.43;;
15454;SDS011;21057;51.024;7.540;2023-03-14T02:22:51;30.13;;;28.13;;
15454;SDS011;21057;51.024;7.540;2023-03-14T02:25:20;31.10;;;29.00;;
15454;SDS011;21057;51.024;7.540;2023-03-14T02:28:04;32.00;;;29.80;;
15454;SDS011;21057;51.024;7.540;2023-03-14T02:30:32;31.23;;;29.30;;
15454;SDS011;21057;51.024;7.540;2023-03-14T02:35:32;31.87;;;29.77;;
15454;SDS011;21057;51.024;7.540;2023-03-14T02:38:04;32.53;;;30.53;;
15454;SDS011;21057;51.024;7.540;2023-03-14T02:40:36;34.60;;;32.53;;
15454;SDS011;21057;51.024;7.540;2023-03-14T02:43:04;32.30;;;30.17;;
15454;SDS011;21057;51.024;7.540;2023-03-14T02:45:36;33.13;;;31.13;;
15454;SDS011;21057;51.024;7.540;2023-03-14T02:48:06;33.27;;;31.30;;
15454;SDS011;21057;51.024;7.540;2023-03-14T02:50:44;31.73;;;29.73;;
15454;SDS011;21057;51.024;7.540;2023-03-14T02:53:26;32.17;;;30.20;;
15454;SDS011;21057;51.024;7.540;2023-03-14T02:55:55;32.73;;;30.83;;
15454;SDS011;21057;51.024;7.540;2023-03-14T02:58:23;33.37;;;31.37;;
15454;SDS011;21057;51.024;7.540;2023-03-14T03:00:57;33.90;;;31.90;;
15454;SDS011;21057;51.024;7.540;2023-03-14T03:03:41;32.50;;;30.60;;
15454;SDS011;21057;51.024;7.540;2023-03-14T03:06:16;32.83;;;30.97;;
15454;SDS011;21057;51.024;7.540;2023-03-14T03:08:54;32.77;;;30.87;;
15454;SDS011;21057;51.024;7.540;2023-03-14T03:11:22;32.77;;;30.77;;
15454;SDS011;21057;51.024;7.540;2023-03-14T03:13:51;33.27;;;31.37;;
15454;SDS011;21057;51.024;7.540;2023-03-14T03:16:18;32.70;;;30.60;;
15454;SDS011;21057;51.024;7.540;2023-03-14T03:18:50;31.27;;;29.43;;
15454;SDS011;21057;51.024;7.540;2023-03-14T03:21:16;31.67;;;29.77;;
15454;SDS011;21057;51.024;7.540;2023-03-14T03:23:48;32.17;;;30.07;;
15454;SDS011;21057;51.024;7.540;2023-03-14T03:26:21;31.20;;;29.40;;
15454;SDS011;21057;51.024;7.540;2023-03-14T03:28:51;32.60;;;30.70;;
15454;SDS011;21057;51.024;7.540;2023-03-14T03:31:18;32.53;;;30.53;;
15454;SDS011;21057;51.024;7.540;2023-03-14T03:33:47;33.33;;;31.20;;
15454;SDS011;21057;51.024;7.540;2023-03-14T03:36:13;34.33;;;32.13;;
15454;SDS011;21057;51.024;7.540;2023-03-14T03:38:40;34.13;;;32.13;;
15454;SDS011;21057;51.024;7.540;2023-03-14T03:41:14;33.77;;;31.57;;
15454;SDS011;21057;51.024;7.540;2023-03-14T03:43:41;34.40;;;31.80;;
15454;SDS011;21057;51.024;7.540;2023-03-14T03:46:10;34.97;;;32.73;;
15454;SDS011;21057;51.024;7.540;2023-03-14T03:51:25;36.47;;;33.80;;
15454;SDS011;21057;51.024;7.540;2023-03-14T03:53:52;34.30;;;32.10;;
15454;SDS011;21057;51.024;7.540;2023-03-14T03:56:19;35.47;;;33.10;;
15454;SDS011;21057;51.024;7.540;2023-03-14T03:58:46;35.60;;;33.10;;
15454;SDS011;21057;51.024;7.540;2023-03-14T04:01:21;35.43;;;33.33;;
15454;SDS011;21057;51.024;7.540;2023-03-14T04:03:48;37.73;;;34.33;;
15454;SDS011;21057;51.024;7.540;2023-03-14T04:06:15;35.20;;;33.00;;
15454;SDS011;21057;51.024;7.540;2023-03-14T04:08:42;35.80;;;32.83;;
15454;SDS011;21057;51.024;7.540;2023-03-14T04:11:09;35.37;;;33.23;;
15454;SDS011;21057;51.024;7.540;2023-03-14T04:13:36;35.80;;;33.57;;
15454;SDS011;21057;51.024;7.540;2023-03-14T04:16:08;38.07;;;35.10;;
15454;SDS011;21057;51.024;7.540;2023-03-14T04:18:41;37.83;;;35.23;;
15454;SDS011;21057;51.024;7.540;2023-03-14T04:21:08;36.87;;;34.63;;
15454;SDS011;21057;51.024;7.540;2023-03-14T04:23:35;37.43;;;35.17;;
15454;SDS011;21057;51.024;7.540;2023-03-14T04:26:03;39.00;;;36.63;;
15454;SDS011;21057;51.024;7.540;2023-03-14T04:28:30;36.43;;;34.23;;
15454;SDS011;21057;51.024;7.540;2023-03-14T04:30:57;37.60;;;35.30;;
15454;SDS011;21057;51.024;7.540;2023-03-14T04:33:24;39.20;;;36.90;;
15454;SDS011;21057;51.024;7.540;2023-03-14T04:35:55;36.50;;;34.30;;
15454;SDS011;21057;51.024;7.540;2023-03-14T04:38:21;40.23;;;37.53;;
15454;SDS011;21057;51.024;7.540;2023-03-14T04:40:48;38.00;;;35.27;;
15454;SDS011;21057;51.024;7.540;2023-03-14T04:43:16;38.50;;;36.30;;
15454;SDS011;21057;51.024;7.540;2023-03-14T04:45:42;41.10;;;38.47;;
15454;SDS011;21057;51.024;7.540;2023-03-14T04:48:10;40.40;;;37.90;;
15454;SDS011;21057;51.024;7.540;2023-03-14T04:50:45;39.83;;;37.23;;
15454;SDS011;21057;51.024;7.540;2023-03-14T04:53:15;39.87;;;37.57;;
15454;SDS011;21057;51.024;7.540;2023-03-14T04:55:47;39.47;;;36.83;;
15454;SDS011;21057;51.024;7.540;2023-03-14T04:58:21;39.17;;;36.87;;
15454;SDS011;21057;51.024;7.540;2023-03-14T05:00:49;39.03;;;36.43;;
15454;SDS011;21057;51.024;7.540;2023-03-14T05:03:16;40.60;;;37.77;;
15454;SDS011;21057;51.024;7.540;2023-03-14T05:05:49;38.43;;;36.03;;
15454;SDS011;21057;51.024;7.540;2023-03-14T05:08:19;40.77;;;38.37;;
15454;SDS011;21057;51.024;7.540;2023-03-14T05:10:51;38.60;;;36.00;;
15454;SDS011;21057;51.024;7.540;2023-03-14T05:13:18;39.63;;;36.80;;
15454;SDS011;21057;51.024;7.540;2023-03-14T05:15:51;37.60;;;35.40;;
15454;SDS011;21057;51.024;7.540;2023-03-14T05:18:18;38.10;;;35.90;;
15454;SDS011;21057;51.024;7.540;2023-03-14T05:20:45;36.80;;;34.60;;
15454;SDS011;21057;51.024;7.540;2023-03-14T05:23:12;36.47;;;34.37;;
15454;SDS011;21057;51.024;7.540;2023-03-14T05:25:42;37.13;;;34.97;;
15454;SDS011;21057;51.024;7.540;2023-03-14T05:28:09;37.80;;;35.60;;
15454;SDS011;21057;51.024;7.540;2023-03-14T05:30:36;37.27;;;34.87;;
15454;SDS011;21057;51.024;7.540;2023-03-14T05:33:03;36.00;;;33.90;;
15454;SDS011;21057;51.024;7.540;2023-03-14T05:35:29;37.23;;;34.97;;
15454;SDS011;21057;51.024;7.540;2023-03-14T05:37:56;37.47;;;35.37;;
15454;SDS011;21057;51.024;7.540;2023-03-14T05:40:23;39.10;;;36.90;;
15454;SDS011;21057;51.024;7.540;2023-03-14T05:42:52;41.90;;;39.20;;
15454;SDS011;21057;51.024;7.540;2023-03-14T05:47:55;38.60;;;36.30;;
15454;SDS011;21057;51.024;7.540;2023-03-14T05:50:22;37.77;;;35.57;;
15454;SDS011;21057;51.024;7.540;2023-03-14T05:52:52;37.60;;;35.40;;
15454;SDS011;21057;51.024;7.540;2023-03-14T05:55:26;38.37;;;36.07;;
15454;SDS011;21057;51.024;7.540;2023-03-14T05:57:54;41.13;;;38.83;;
15454;SDS011;21057;51.024;7.540;2023-03-14T06:00:27;40.80;;;38.30;;
15454;SDS011;21057;51.024;7.540;2023-03-14T06:02:54;38.87;;;36.57;;
15454;SDS011;21057;51.024;7.540;2023-03-14T06:05:21;38.27;;;35.97;;
15454;SDS011;21057;51.024;7.540;2023-03-14T06:07:48;37.03;;;34.90;;
15454;SDS011;21057;51.024;7.540;2023-03-14T06:10:15;37.33;;;35.10;;
15454;SDS011;21057;51.024;7.540;2023-03-14T06:12:42;38.27;;;36.03;;
15454;SDS011;21057;51.024;7.540;2023-03-14T06:15:10;38.27;;;36.07;;
15454;SDS011;21057;51.024;7.540;2023-03-14T06:17:40;37.47;;;35.17;;
15454;SDS011;21057;51.024;7.540;2023-03-14T06:20:08;39.87;;;37.47;;
15454;SDS011;21057;51.024;7.540;2023-03-14T06:22:36;37.20;;;35.00;;
15454;SDS011;21057;51.024;7.540;2023-03-14T06:25:03;38.87;;;36.57;;
15454;SDS011;21057;51.024;7.540;2023-03-14T06:27:30;38.27;;;35.97;;
15454;SDS011;21057;51.024;7.540;2023-03-14T06:29:57;38.50;;;36.23;;
15454;SDS011;21057;51.024;7.540;2023-03-14T06:32:26;38.33;;;36.13;;
15454;SDS011;21057;51.024;7.540;2023-03-14T06:34:52;38.10;;;35.90;;
15454;SDS011;21057;51.024;7.540;2023-03-14T06:37:19;40.80;;;38.40;;
15454;SDS011;21057;51.024;7.540;2023-03-14T06:39:47;39.30;;;36.53;;
15454;SDS011;21057;51.024;7.540;2023-03-14T06:42:14;40.13;;;37.37;;
15454;SDS011;21057;51.024;7.540;2023-03-14T06:44:41;37.40;;;35.20;;
15454;SDS011;21057;51.024;7.540;2023-03-14T06:47:07;37.20;;;34.80;;
15454;SDS011;21057;51.024;7.540;2023-03-14T06:49:36;41.13;;;38.40;;
15454;SDS011;21057;51.024;7.540;2023-03-14T06:54:42;40.40;;;38.10;;
15454;SDS011;21057;51.024;7.540;2023-03-14T06:57:17;37.23;;;35.03;;
15454;SDS011;21057;51.024;7.540;2023-03-14T06:59:51;36.90;;;34.60;;
15454;SDS011;21057;51.024;7.540;2023-03-14T07:02:26;38.37;;;36.07;;
15454;SDS011;21057;51.024;7.540;2023-03-14T07:04:54;39.40;;;37.10;;
15454;SDS011;21057;51.024;7.540;2023-03-14T07:07:21;41.63;;;39.33;;
15454;SDS011;21057;51.024;7.540;2023-03-14T07:09:47;40.70;;;38.30;;
15454;SDS011;21057;51.024;7.540;2023-03-14T07:12:14;41.73;;;39.43;;
15454;SDS011;21057;51.024;7.540;2023-03-14T07:14:41;39.00;;;36.70;;
15454;SDS011;21057;51.024;7.540;2023-03-14T07:17:08;37.80;;;35.70;;
15454;SDS011;21057;51.024;7.540;2023-03-14T07:19:35;35.70;;;33.70;;
15454;SDS011;21057;51.024;7.540;2023-03-14T07:22:04;37.20;;;35.20;;
15454;SDS011;21057;51.024;7.540;2023-03-14T07:24:31;37.27;;;34.97;;
15454;SDS011;21057;51.024;7.540;2023-03-14T07:27:04;35.93;;;33.93;;
15454;SDS011;21057;51.024;7.540;2023-03-14T07:29:33;36.70;;;34.60;;
15454;SDS011;21057;51.024;7.540;2023-03-14T07:32:00;34.13;;;32.00;;
15454;SDS011;21057;51.024;7.540;2023-03-14T07:34:28;37.07;;;34.93;;
15454;SDS011;21057;51.024;7.540;2023-03-14T07:36:54;36.73;;;34.63;;
15454;SDS011;21057;51.024;7.540;2023-03-14T07:39:24;36.90;;;34.80;;
15454;SDS011;21057;51.024;7.540;2023-03-14T07:41:51;36.80;;;34.70;;
15454;SDS011;21057;51.024;7.540;2023-03-14T07:46:50;37.83;;;35.63;;
15454;SDS011;21057;51.024;7.540;2023-03-14T07:52:11;34.73;;;32.73;;
15454;SDS011;21057;51.024;7.540;2023-03-14T07:54:41;36.60;;;34.50;;
15454;SDS011;21057;51.024;7.540;2023-03-14T07:57:20;34.90;;;33.00;;
15454;SDS011;21057;51.024;7.540;2023-03-14T07:59:47;35.90;;;33.90;;
15454;SDS011;21057;51.024;7.540;2023-03-14T08:02:18;38.73;;;36.37;;
15454;SDS011;21057;51.024;7.540;2023-03-14T08:05:01;37.87;;;35.77;;
15454;SDS011;21057;51.024;7.540;2023-03-14T08:07:28;34.00;;;32.10;;
15454;SDS011;21057;51.024;7.540;2023-03-14T08:12:59;34.10;;;32.10;;
15454;SDS011;21057;51.024;7.540;2023-03-14T08:15:28;36.60;;;34.50;;
15454;SDS011;21057;51.024;7.540;2023-03-14T08:17:57;34.90;;;32.90;;
15454;SDS011;21057;51.024;7.540;2023-03-14T08:20:33;35.73;;;33.67;;
15454;SDS011;21057;51.024;7.540;2023-03-14T08:23:01;37.13;;;35.03;;
15454;SDS011;21057;51.024;7.540;2023-03-14T08:25:30;35.53;;;33.43;;
15454;SDS011;21057;51.024;7.540;2023-03-14T08:27:57;33.50;;;31.60;;
15454;SDS011;21057;51.024;7.540;2023-03-14T08:30:24;35.67;;;33.70;;
15454;SDS011;21057;51.024;7.540;2023-03-14T08:32:53;36.20;;;34.20;;
15454;SDS011;21057;51.024;7.540;2023-03-14T08:35:22;35.57;;;33.60;;
15454;SDS011;21057;51.024;7.540;2023-03-14T08:37:59;36.53;;;34.53;;
15454;SDS011;21057;51.024;7.540;2023-03-14T08:40:26;37.07;;;35.07;;
15454;SDS011;21057;51.024;7.540;2023-03-14T08:42:56;35.60;;;33.60;;
15454;SDS011;21057;51.024;7.540;2023-03-14T08:45:23;34.83;;;32.93;;
15454;SDS011;21057;51.024;7.540;2023-03-14T08:47:51;34.53;;;32.63;;
15454;SDS011;21057;51.024;7.540;2023-03-14T08:50:19;34.90;;;33.00;;
15454;SDS011;21057;51.024;7.540;2023-03-14T08:52:48;36.00;;;34.00;;
15454;SDS011;21057;51.024;7.540;2023-03-14T08:55:20;33.97;;;32.07;;
15454;SDS011;21057;51.024;7.540;2023-03-14T09:02:55;34.23;;;32.33;;
15454;SDS011;21057;51.024;7.540;2023-03-14T09:05:33;34.67;;;32.77;;
15454;SDS011;21057;51.024;7.540;2023-03-14T09:08:02;34.00;;;32.10;;
15454;SDS011;21057;51.024;7.540;2023-03-14T09:10:35;34.77;;;32.87;;
15454;SDS011;21057;51.024;7.540;2023-03-14T09:13:04;35.50;;;33.50;;
15454;SDS011;21057;51.024;7.540;2023-03-14T09:15:32;34.07;;;32.17;;
15454;SDS011;21057;51.024;7.540;2023-03-14T09:17:59;34.63;;;32.73;;
15454;SDS011;21057;51.024;7.540;2023-03-14T09:20:27;34.97;;;32.97;;
15454;SDS011;21057;51.024;7.540;2023-03-14T09:23:02;32.93;;;31.03;;
15454;SDS011;21057;51.024;7.540;2023-03-14T09:28:14;36.03;;;34.03;;
15454;SDS011;21057;51.024;7.540;2023-03-14T09:30:43;38.00;;;35.90;;
15454;SDS011;21057;51.024;7.540;2023-03-14T09:33:11;37.03;;;34.93;;
15454;SDS011;21057;51.024;7.540;2023-03-14T09:35:46;36.80;;;34.70;;
15454;SDS011;21057;51.024;7.540;2023-03-14T09:38:19;37.93;;;35.67;;
15454;SDS011;21057;51.024;7.540;2023-03-14T09:40:53;40.03;;;37.73;;
15454;SDS011;21057;51.024;7.540;2023-03-14T09:43:22;39.50;;;37.30;;
15454;SDS011;21057;51.024;7.540;2023-03-14T09:45:53;39.27;;;36.90;;
15454;SDS011;21057;51.024;7.540;2023-03-14T09:48:26;40.57;;;38.27;;
15454;SDS011;21057;51.024;7.540;2023-03-14T09:50:58;37.80;;;35.70;;
15454;SDS011;21057;51.024;7.540;2023-03-14T09:56:16;38.00;;;35.90;;
15454;SDS011;21057;51.024;7.540;2023-03-14T10:01:40;37.57;;;35.37;;
15454;SDS011;21057;51.024;7.540;2023-03-14T10:04:15;33.20;;;31.20;;
15454;SDS011;21057;51.024;7.540;2023-03-14T10:06:49;35.97;;;33.87;;
15454;SDS011;21057;51.024;7.540;2023-03-14T10:09:17;34.53;;;32.47;;
15454;SDS011;21057;51.024;7.540;2023-03-14T10:11:53;34.43;;;32.43;;
15454;SDS011;21057;51.024;7.540;2023-03-14T10:14:31;31.60;;;29.80;;
15454;SDS011;21057;51.024;7.540;2023-03-14T10:17:08;33.93;;;32.03;;
15454;SDS011;21057;51.024;7.540;2023-03-14T10:19:37;33.50;;;31.60;;
15454;SDS011;21057;51.024;7.540;2023-03-14T10:22:18;36.13;;;34.13;;
15454;SDS011;21057;51.024;7.540;2023-03-14T10:24:46;33.03;;;31.13;;
15454;SDS011;21057;51.024;7.540;2023-03-14T10:27:20;30.80;;;29.00;;
15454;SDS011;21057;51.024;7.540;2023-03-14T10:29:53;33.07;;;31.17;;
15454;SDS011;21057;51.024;7.540;2023-03-14T10:32:22;31.63;;;29.83;;
15454;SDS011;21057;51.024;7.540;2023-03-14T10:35:07;32.00;;;30.20;;
15454;SDS011;21057;51.024;7.540;2023-03-14T10:40:26;33.03;;;31.13;;
15454;SDS011;21057;51.024;7.540;2023-03-14T10:43:13;37.43;;;35.40;;
15454;SDS011;21057;51.024;7.540;2023-03-14T10:45:44;35.40;;;33.30;;
15454;SDS011;21057;51.024;7.540;2023-03-14T10:48:18;33.57;;;31.77;;
15454;SDS011;21057;51.024;7.540;2023-03-14T10:50:54;30.97;;;29.27;;
15454;SDS011;21057;51.024;7.540;2023-03-14T10:53:32;32.23;;;30.43;;
15454;SDS011;21057;51.024;7.540;2023-03-14T10:56:05;33.70;;;31.80;;
15454;SDS011;21057;51.024;7.540;2023-03-14T10:58:35;32.27;;;30.47;;
15454;SDS011;21057;51.024;7.540;2023-03-14T11:01:12;33.00;;;31.10;;
15454;SDS011;21057;51.024;7.540;2023-03-14T11:03:56;29.40;;;27.70;;
15454;SDS011;21057;51.024;7.540;2023-03-14T11:06:29;30.27;;;28.47;;
15454;SDS011;21057;51.024;7.540;2023-03-14T11:09:05;29.60;;;27.90;;
15454;SDS011;21057;51.024;7.540;2023-03-14T11:11:39;33.20;;;31.30;;
15454;SDS011;21057;51.024;7.540;2023-03-14T11:14:15;33.90;;;31.90;;
15454;SDS011;21057;51.024;7.540;2023-03-14T11:16:53;32.73;;;30.83;;
15454;SDS011;21057;51.024;7.540;2023-03-14T11:19:29;31.23;;;29.33;;
15454;SDS011;21057;51.024;7.540;2023-03-14T11:22:27;35.37;;;33.27;;
15454;SDS011;21057;51.024;7.540;2023-03-14T11:25:03;34.97;;;32.83;;
15454;SDS011;21057;51.024;7.540;2023-03-14T11:27:41;34.73;;;32.63;;
15454;SDS011;21057;51.024;7.540;2023-03-14T11:30:18;35.43;;;33.33;;
15454;SDS011;21057;51.024;7.540;2023-03-14T11:32:55;34.87;;;32.77;;
15454;SDS011;21057;51.024;7.540;2023-03-14T11:35:39;30.07;;;28.27;;
15454;SDS011;21057;51.024;7.540;2023-03-14T11:38:14;33.40;;;31.50;;
15454;SDS011;21057;51.024;7.540;2023-03-14T11:40:48;32.53;;;30.73;;
15454;SDS011;21057;51.024;7.540;2023-03-14T11:43:17;32.20;;;30.40;;
15454;SDS011;21057;51.024;7.540;2023-03-14T11:48:42;37.40;;;35.30;;
15454;SDS011;21057;51.024;7.540;2023-03-14T11:51:13;36.57;;;34.57;;
15454;SDS011;21057;51.024;7.540;2023-03-14T11:53:50;36.50;;;34.40;;
15454;SDS011;21057;51.024;7.540;2023-03-14T11:59:55;34.60;;;32.60;;
15454;SDS011;21057;51.024;7.540;2023-03-14T12:02:26;34.57;;;32.47;;
15454;SDS011;21057;51.024;7.540;2023-03-14T12:05:18;34.80;;;32.80;;
15454;SDS011;21057;51.024;7.540;2023-03-14T12:11:08;29.27;;;27.57;;
15454;SDS011;21057;51.024;7.540;2023-03-14T12:13:50;27.13;;;25.53;;
15454;SDS011;21057;51.024;7.540;2023-03-14T12:16:26;29.00;;;27.30;;
15454;SDS011;21057;51.024;7.540;2023-03-14T12:21:53;28.10;;;26.40;;
15454;SDS011;21057;51.024;7.540;2023-03-14T12:24:30;26.80;;;25.13;;
15454;SDS011;21057;51.024;7.540;2023-03-14T12:30:23;28.13;;;26.53;;
15454;SDS011;21057;51.024;7.540;2023-03-14T12:35:57;30.77;;;28.87;;
15454;SDS011;21057;51.024;7.540;2023-03-14T12:41:51;33.80;;;31.80;;
15454;SDS011;21057;51.024;7.540;2023-03-14T12:59:40;26.70;;;25.10;;
15454;SDS011;21057;51.024;7.540;2023-03-14T13:08:08;27.80;;;26.20;;
15454;SDS011;21057;51.024;7.540;2023-03-14T13:10:39;27.87;;;26.27;;
15454;SDS011;21057;51.024;7.540;2023-03-14T13:16:05;25.47;;;23.47;;
15454;SDS011;21057;51.024;7.540;2023-03-14T13:18:43;25.93;;;24.43;;
15454;SDS011;21057;51.024;7.540;2023-03-14T13:21:12;27.30;;;25.40;;
15454;SDS011;21057;51.024;7.540;2023-03-14T13:26:55;30.13;;;28.23;;
15454;SDS011;21057;51.024;7.540;2023-03-14T13:29:30;30.40;;;28.60;;
15454;SDS011;21057;51.024;7.540;2023-03-14T13:32:15;29.53;;;27.53;;
15454;SDS011;21057;51.024;7.540;2023-03-14T13:34:43;29.63;;;27.93;;
15454;SDS011;21057;51.024;7.540;2023-03-14T13:37:15;27.30;;;25.70;;
15454;SDS011;21057;51.024;7.540;2023-03-14T13:39:48;27.07;;;25.47;;
15454;SDS011;21057;51.024;7.540;2023-03-14T13:42:15;27.60;;;25.80;;
15454;SDS011;21057;51.024;7.540;2023-03-14T13:44:45;28.83;;;27.23;;
15454;SDS011;21057;51.024;7.540;2023-03-14T13:47:13;25.30;;;23.90;;
15454;SDS011;21057;51.024;7.540;2023-03-14T13:49:43;27.20;;;25.60;;
15454;SDS011;21057;51.024;7.540;2023-03-14T13:52:23;25.13;;;23.63;;
15454;SDS011;21057;51.024;7.540;2023-03-14T13:54:55;24.63;;;22.47;;
15454;SDS011;21057;51.024;7.540;2023-03-14T13:57:26;24.17;;;22.47;;
15454;SDS011;21057;51.024;7.540;2023-03-14T14:00:03;22.53;;;21.13;;
15454;SDS011;21057;51.024;7.540;2023-03-14T14:02:33;23.70;;;22.20;;
15454;SDS011;21057;51.024;7.540;2023-03-14T14:05:12;24.87;;;23.27;;
15454;SDS011;21057;51.024;7.540;2023-03-14T14:07:42;23.80;;;22.40;;
15454;SDS011;21057;51.024;7.540;2023-03-14T14:10:22;24.03;;;22.43;;
15454;SDS011;21057;51.024;7.540;2023-03-14T14:12:59;26.07;;;24.57;;
15454;SDS011;21057;51.024;7.540;2023-03-14T14:15:31;25.03;;;23.53;;
15454;SDS011;21057;51.024;7.540;2023-03-14T14:20:54;24.30;;;22.70;;
15454;SDS011;21057;51.024;7.540;2023-03-14T14:23:21;25.40;;;23.80;;
15454;SDS011;21057;51.024;7.540;2023-03-14T14:26:02;26.27;;;24.77;;
15454;SDS011;21057;51.024;7.540;2023-03-14T14:28:32;24.53;;;23.03;;
15454;SDS011;21057;51.024;7.540;2023-03-14T14:31:18;24.10;;;22.70;;
15454;SDS011;21057;51.024;7.540;2023-03-14T14:33:53;24.70;;;23.30;;
15454;SDS011;21057;51.024;7.540;2023-03-14T14:41:52;25.07;;;23.57;;
15454;SDS011;21057;51.024;7.540;2023-03-14T14:44:28;25.37;;;23.13;;
15454;SDS011;21057;51.024;7.540;2023-03-14T14:47:05;23.07;;;21.73;;
15454;SDS011;21057;51.024;7.540;2023-03-14T14:49:45;23.00;;;21.60;;
15454;SDS011;21057;51.024;7.540;2023-03-14T14:52:14;23.43;;;21.87;;
15454;SDS011;21057;51.024;7.540;2023-03-14T14:54:44;23.93;;;22.23;;
15454;SDS011;21057;51.024;7.540;2023-03-14T14:57:17;23.73;;;22.37;;
15454;SDS011;21057;51.024;7.540;2023-03-14T14:59:54;22.90;;;21.60;;
15454;SDS011;21057;51.024;7.540;2023-03-14T15:02:27;23.10;;;21.60;;
15454;SDS011;21057;51.024;7.540;2023-03-14T15:04:57;22.27;;;20.57;;
15454;SDS011;21057;51.024;7.540;2023-03-14T15:07:24;22.40;;;20.67;;
15454;SDS011;21057;51.024;7.540;2023-03-14T15:10:00;23.97;;;22.47;;
15454;SDS011;21057;51.024;7.540;2023-03-14T15:12:29;22.73;;;21.43;;
15454;SDS011;21057;51.024;7.540;2023-03-14T15:14:55;23.13;;;21.63;;
15454;SDS011;21057;51.024;7.540;2023-03-14T15:17:22;21.53;;;20.33;;
15454;SDS011;21057;51.024;7.540;2023-03-14T15:19:52;24.70;;;22.20;;
15454;SDS011;21057;51.024;7.540;2023-03-14T15:22:23;23.67;;;21.90;;
15454;SDS011;21057;51.024;7.540;2023-03-14T15:24:50;22.50;;;21.20;;
15454;SDS011;21057;51.024;7.540;2023-03-14T15:27:26;22.80;;;21.10;;
15454;SDS011;21057;51.024;7.540;2023-03-14T15:29:56;21.50;;;20.00;;
15454;SDS011;21057;51.024;7.540;2023-03-14T15:32:26;24.97;;;22.90;;
15454;SDS011;21057;51.024;7.540;2023-03-14T15:35:00;24.23;;;22.10;;
15454;SDS011;21057;51.024;7.540;2023-03-14T15:37:28;25.13;;;23.33;;
15454;SDS011;21057;51.024;7.540;2023-03-14T15:39:56;23.37;;;21.77;;
15454;SDS011;21057;51.024;7.540;2023-03-14T15:42:23;25.33;;;23.13;;
15454;SDS011;21057;51.024;7.540;2023-03-14T15:44:52;24.33;;;21.80;;
15454;SDS011;21057;51.024;7.540;2023-03-14T15:47:20;23.43;;;21.93;;
15454;SDS011;21057;51.024;7.540;2023-03-14T15:50:00;23.70;;;21.90;;
15454;SDS011;21057;51.024;7.540;2023-03-14T15:52:27;22.90;;;20.97;;
15454;SDS011;21057;51.024;7.540;2023-03-14T15:54:54;24.23;;;22.00;;
15454;SDS011;21057;51.024;7.540;2023-03-14T15:57:21;22.10;;;20.57;;
15454;SDS011;21057;51.024;7.540;2023-03-14T15:59:48;23.73;;;21.50;;
15454;SDS011;21057;51.024;7.540;2023-03-14T16:02:15;23.50;;;21.47;;
15454;SDS011;21057;51.024;7.540;2023-03-14T16:04:42;21.87;;;20.47;;
15454;SDS011;21057;51.024;7.540;2023-03-14T16:07:10;24.80;;;23.00;;
15454;SDS011;21057;51.024;7.540;2023-03-14T16:09:37;25.70;;;23.80;;
15454;SDS011;21057;51.024;7.540;2023-03-14T16:12:04;23.23;;;21.63;;
15454;SDS011;21057;51.024;7.540;2023-03-14T16:14:32;23.40;;;22.00;;
15454;SDS011;21057;51.024;7.540;2023-03-14T16:19:40;25.13;;;22.80;;
15454;SDS011;21057;51.024;7.540;2023-03-14T16:22:07;25.17;;;23.10;;
15454;SDS011;21057;51.024;7.540;2023-03-14T16:24:35;22.83;;;21.13;;